createdAt,value
2018-10-18T00:02:20.659Z,27.13
2018-10-18T00:07:24.031Z,27.73
2018-10-18T00:12:27.496Z,29.47
2018-10-18T00:17:36.372Z,26.77
2018-10-18T00:22:39.749Z,27.23
2018-10-18T00:27:43.155Z,27.13
2018-10-18T00:32:46.572Z,27.80
2018-10-18T00:37:50.020Z,26.73
2018-10-18T00:42:53.380Z,28.73
2018-10-18T00:47:56.820Z,25.83
2018-10-18T00:53:00.257Z,27.77
2018-10-18T00:58:03.668Z,27.75
2018-10-18T01:03:07.040Z,26.97
2018-10-18T01:08:10.522Z,27.63
2018-10-18T01:13:13.827Z,26.00
2018-10-18T01:18:17.237Z,26.83
2018-10-18T01:23:20.639Z,27.35
2018-10-18T01:28:24.011Z,27.70
2018-10-18T01:33:27.580Z,27.33
2018-10-18T01:38:30.964Z,27.70
2018-10-18T01:43:34.343Z,27.37
2018-10-18T01:48:37.851Z,26.93
2018-10-18T01:53:41.485Z,27.45
2018-10-18T01:58:44.863Z,27.97
2018-10-18T02:03:48.248Z,28.83
2018-10-18T02:08:51.622Z,27.70
2018-10-18T02:13:54.994Z,26.77
2018-10-18T02:18:58.395Z,26.90
2018-10-18T02:24:01.900Z,27.27
2018-10-18T02:29:05.394Z,28.13
2018-10-18T02:34:08.785Z,26.90
2018-10-18T02:39:12.160Z,28.20
2018-10-18T02:44:15.572Z,28.10
2018-10-18T02:49:18.983Z,28.20
2018-10-18T02:54:22.388Z,25.60
2018-10-18T02:59:25.855Z,27.87
2018-10-18T03:04:29.244Z,27.03
2018-10-18T03:09:32.625Z,27.83
2018-10-18T03:14:36.015Z,26.67
2018-10-18T03:19:39.415Z,26.80
2018-10-18T03:24:42.795Z,26.33
2018-10-18T03:29:46.163Z,28.13
2018-10-18T03:34:49.555Z,28.43
2018-10-18T03:39:53.005Z,27.73
2018-10-18T03:44:56.424Z,26.90
2018-10-18T03:49:59.795Z,27.30
2018-10-18T03:55:03.171Z,27.07
2018-10-18T04:00:07.356Z,26.97
2018-10-18T04:05:11.170Z,26.47
2018-10-18T04:10:14.559Z,25.63
2018-10-18T04:15:17.974Z,27.80
2018-10-18T04:20:21.354Z,28.47
2018-10-18T04:25:24.818Z,28.47
2018-10-18T04:30:28.177Z,27.27
2018-10-18T04:35:31.554Z,26.10
2018-10-18T04:40:35.003Z,26.97
2018-10-18T04:45:38.380Z,26.90
2018-10-18T04:50:41.875Z,27.13
2018-10-18T04:55:45.353Z,26.40
2018-10-18T05:00:48.754Z,26.03
2018-10-18T05:05:57.973Z,25.80
2018-10-18T05:11:01.368Z,26.43
2018-10-18T05:16:05.392Z,26.33
2018-10-18T05:21:08.827Z,27.57
2018-10-18T05:26:12.204Z,27.53
2018-10-18T05:31:15.655Z,28.13
2018-10-18T05:36:19.116Z,25.67
2018-10-18T05:41:22.478Z,26.17
2018-10-18T05:46:25.898Z,27.35
2018-10-18T05:51:29.283Z,25.73
2018-10-18T05:56:32.695Z,26.57
2018-10-18T06:01:36.118Z,26.83
2018-10-18T06:06:39.557Z,27.87
2018-10-18T06:11:42.956Z,26.90
2018-10-18T06:16:46.331Z,27.03
2018-10-18T06:21:49.914Z,28.40
2018-10-18T06:26:53.352Z,28.80
2018-10-18T06:31:56.816Z,27.93
2018-10-18T06:37:00.221Z,28.53
2018-10-18T06:42:03.604Z,27.23
2018-10-18T06:47:07.140Z,27.70
2018-10-18T06:52:10.457Z,27.80
2018-10-18T06:57:13.936Z,28.03
2018-10-18T07:02:17.418Z,27.93
2018-10-18T07:07:20.883Z,29.65
2018-10-18T07:12:24.324Z,30.17
2018-10-18T07:17:27.716Z,30.77
2018-10-18T07:22:31.152Z,31.67
2018-10-18T07:27:34.596Z,31.33
2018-10-18T07:32:38.019Z,31.23
2018-10-18T07:37:41.407Z,35.57
2018-10-18T07:42:44.888Z,33.90
2018-10-18T07:47:48.271Z,34.40
2018-10-18T07:52:51.684Z,32.97
2018-10-18T07:57:55.268Z,42.43
2018-10-18T08:02:58.689Z,42.63
2018-10-18T08:08:02.111Z,44.83
2018-10-18T08:13:05.519Z,50.00
2018-10-18T08:18:08.924Z,47.33
2018-10-18T08:23:12.311Z,49.90
2018-10-18T08:28:15.691Z,53.33
2018-10-18T08:33:19.080Z,54.83
2018-10-18T08:38:23.142Z,54.37
2018-10-18T08:43:26.527Z,54.23
2018-10-18T08:48:29.919Z,51.77
2018-10-18T08:53:33.348Z,54.73
2018-10-18T08:58:36.811Z,50.20
2018-10-18T09:03:40.548Z,54.37
2018-10-18T09:08:44.011Z,57.50
2018-10-18T09:13:47.407Z,59.53
2018-10-18T09:18:50.835Z,57.97
2018-10-18T09:23:54.413Z,57.00
2018-10-18T09:28:57.764Z,58.80
2018-10-18T09:34:01.151Z,59.37
2018-10-18T09:39:05.994Z,57.53
2018-10-18T09:44:09.566Z,56.93
2018-10-18T09:49:13.041Z,53.80
2018-10-18T09:54:16.456Z,53.47
2018-10-18T09:59:19.847Z,54.03
2018-10-18T10:04:23.323Z,54.00
2018-10-18T10:09:26.815Z,52.37
2018-10-18T10:14:30.198Z,50.83
2018-10-18T10:32:12.392Z,47.73
2018-10-18T10:37:16.010Z,43.97
2018-10-18T10:42:19.497Z,39.47
2018-10-18T10:47:22.860Z,39.37
2018-10-18T10:52:26.539Z,36.37
2018-10-18T10:57:30.864Z,37.40
2018-10-18T11:02:34.764Z,43.63
2018-10-18T11:07:38.242Z,41.43
2018-10-18T11:12:41.740Z,41.83
2018-10-18T11:17:45.168Z,42.38
2018-10-18T11:22:51.344Z,39.10
2018-10-18T11:27:54.796Z,40.43
2018-10-18T11:32:58.250Z,40.30
2018-10-18T11:38:01.725Z,43.37
2018-10-18T11:43:05.332Z,44.60
2018-10-18T11:48:10.102Z,38.77
2018-10-18T11:53:13.463Z,38.67
2018-10-18T11:58:17.047Z,35.47
2018-10-18T12:03:20.507Z,32.33
2018-10-18T12:08:23.987Z,34.00
2018-10-18T12:13:27.514Z,34.33
2018-10-18T12:18:31.034Z,35.30
2018-10-18T12:23:34.552Z,35.70
2018-10-18T12:28:38.052Z,33.60
2018-10-18T12:33:41.889Z,33.05
2018-10-18T12:38:45.388Z,33.37
2018-10-18T12:43:48.801Z,34.75
2018-10-18T12:48:52.231Z,33.00
2018-10-18T12:53:55.725Z,33.40
2018-10-18T12:58:59.153Z,32.35
2018-10-18T13:04:02.544Z,31.60
2018-10-18T13:09:08.694Z,33.07
2018-10-18T13:14:12.176Z,30.63
2018-10-18T13:19:15.889Z,30.03
2018-10-18T13:24:19.607Z,28.87
2018-10-18T13:29:22.856Z,28.63
2018-10-18T13:34:26.235Z,26.80
2018-10-18T13:39:29.709Z,26.77
2018-10-18T13:44:33.218Z,25.70
2018-10-18T13:49:36.804Z,28.47
2018-10-18T13:54:40.250Z,30.27
2018-10-18T13:59:55.184Z,30.10
2018-10-18T14:04:58.628Z,29.37
2018-10-18T14:10:03.133Z,28.37
2018-10-18T14:15:07.380Z,28.63
2018-10-18T14:20:10.974Z,29.83
2018-10-18T14:25:14.377Z,31.97
2018-10-18T14:30:17.878Z,30.47
2018-10-18T14:35:21.337Z,31.60
2018-10-18T14:40:24.684Z,31.53
2018-10-18T14:45:28.105Z,32.50
2018-10-18T14:50:31.882Z,31.70
2018-10-18T14:55:35.123Z,31.73
2018-10-18T15:00:38.584Z,31.57
2018-10-18T15:05:42.005Z,29.57
2018-10-18T15:10:45.457Z,28.30
2018-10-18T15:15:49.022Z,28.53
2018-10-18T15:20:52.460Z,28.70
2018-10-18T15:25:56.016Z,26.90
2018-10-18T15:30:59.368Z,28.37
2018-10-18T15:36:02.794Z,27.17
2018-10-18T15:41:06.314Z,29.73
2018-10-18T15:46:09.704Z,29.70
2018-10-18T15:51:13.397Z,31.37
2018-10-18T15:56:16.968Z,32.40
2018-10-18T16:01:20.437Z,32.83
2018-10-18T16:06:23.945Z,30.73
2018-10-18T16:11:27.492Z,31.10
2018-10-18T16:16:30.896Z,33.17
2018-10-18T16:21:34.355Z,32.27
2018-10-18T16:26:37.942Z,31.37
2018-10-18T16:31:41.312Z,33.67
2018-10-18T16:36:44.716Z,30.87
2018-10-18T16:41:48.250Z,30.40
2018-10-18T16:46:51.744Z,30.90
2018-10-18T16:51:55.231Z,30.93
2018-10-18T16:56:58.590Z,29.20
2018-10-18T17:02:02.170Z,27.97
2018-10-18T17:07:05.688Z,28.37
2018-10-18T17:12:09.156Z,28.20
2018-10-18T17:17:12.524Z,26.23
2018-10-18T17:22:16.011Z,26.03
2018-10-18T17:27:19.523Z,26.70
2018-10-18T17:32:22.984Z,23.50
2018-10-18T17:37:26.351Z,24.03
2018-10-18T17:42:29.763Z,24.53
2018-10-18T17:47:33.444Z,24.90
2018-10-18T17:52:36.854Z,20.00
2018-10-18T17:57:40.303Z,21.67
2018-10-18T18:02:43.768Z,21.40
2018-10-18T18:07:47.171Z,20.67
2018-10-18T18:12:50.559Z,20.57
2018-10-18T18:17:53.942Z,20.40
2018-10-18T18:22:57.384Z,19.67
2018-10-18T18:28:00.770Z,22.20
2018-10-18T18:33:04.266Z,21.23
2018-10-18T18:38:07.703Z,24.43
2018-10-18T18:43:11.091Z,21.60
2018-10-18T18:48:14.475Z,21.90
2018-10-18T18:53:17.986Z,21.00
2018-10-18T18:58:21.431Z,21.15
2018-10-18T19:03:24.949Z,21.00
2018-10-18T19:08:28.366Z,21.87
2018-10-18T19:13:31.994Z,20.67
2018-10-18T19:18:35.207Z,19.00
2018-10-18T19:23:38.633Z,16.80
2018-10-18T19:28:42.221Z,17.20
2018-10-18T19:33:45.568Z,16.70
2018-10-18T19:38:49.429Z,14.98
2018-10-18T19:43:52.942Z,15.00
2018-10-18T19:48:56.385Z,14.80
2018-10-18T19:53:59.812Z,13.57
2018-10-18T19:59:03.216Z,14.00
2018-10-18T20:04:06.674Z,13.07
2018-10-18T20:09:11.761Z,12.67
2018-10-18T20:14:15.212Z,11.65
2018-10-18T20:19:18.597Z,10.77
2018-10-18T20:24:23.958Z,11.33
2018-10-18T20:29:27.453Z,11.00
2018-10-18T20:34:30.883Z,9.73
2018-10-18T20:39:34.433Z,9.30
2018-10-18T20:44:37.917Z,8.63
2018-10-18T20:49:41.314Z,7.40
2018-10-18T20:54:44.828Z,6.83
2018-10-18T20:59:48.253Z,6.90
2018-10-18T21:04:51.693Z,5.93
2018-10-18T21:09:55.083Z,6.00
2018-10-18T21:14:58.475Z,5.83
2018-10-18T21:20:01.866Z,5.80
2018-10-18T21:25:05.394Z,5.33
2018-10-18T21:30:08.988Z,4.53
2018-10-18T21:35:12.409Z,4.17
2018-10-18T21:40:15.852Z,3.97
2018-10-18T21:45:19.325Z,3.50
2018-10-18T21:50:22.711Z,3.40
2018-10-18T21:55:26.175Z,3.70
2018-10-18T22:00:30.355Z,3.13
2018-10-18T22:05:37.719Z,2.60
2018-10-18T22:10:41.347Z,3.15
2018-10-18T22:15:44.750Z,2.93
2018-10-18T22:20:48.128Z,2.57
2018-10-18T22:25:51.511Z,3.10
2018-10-18T22:30:54.895Z,2.80
2018-10-18T22:35:58.284Z,2.42
2018-10-18T22:41:01.780Z,2.37
2018-10-18T22:46:05.335Z,2.63
2018-10-18T22:51:08.730Z,2.37
2018-10-18T22:56:12.148Z,2.23
2018-10-18T23:01:15.571Z,1.97
2018-10-18T23:06:18.999Z,2.17
2018-10-18T23:11:22.386Z,1.90
2018-10-18T23:16:25.759Z,2.00
2018-10-18T23:21:29.148Z,1.97
2018-10-18T23:26:32.536Z,2.10
2018-10-18T23:31:35.955Z,1.67
2018-10-18T23:36:39.419Z,1.77
2018-10-18T23:41:42.804Z,1.60
2018-10-18T23:46:46.192Z,2.00
2018-10-18T23:51:49.652Z,1.57
2018-10-18T23:56:53.095Z,1.37
